sensor_id;sensor_type;location;lat;lon;timestamp;P1;durP1;ratioP1;P2;durP2;ratioP2
55300;SDS011;58302;51.446;-2.000;2023-09-30T00:00:26;14.05;;;5.25;;
55300;SDS011;58302;51.446;-2.000;2023-09-30T00:02:53;8.02;;;3.72;;
55300;SDS011;58302;51.446;-2.000;2023-09-30T00:05:19;14.50;;;5.93;;
55300;SDS011;58302;51.446;-2.000;2023-09-30T00:07:48;9.25;;;5.03;;
55300;SDS011;58302;51.446;-2.000;2023-09-30T00:10:14;16.13;;;6.40;;
55300;SDS011;58302;51.446;-2.000;2023-09-30T00:12:40;22.45;;;13.10;;
55300;SDS011;58302;51.446;-2.000;2023-09-30T00:15:06;39.95;;;20.58;;
55300;SDS011;58302;51.446;-2.000;2023-09-30T00:17:32;31.55;;;18.65;;
55300;SDS011;58302;51.446;-2.000;2023-09-30T00:19:58;27.85;;;14.77;;
55300;SDS011;58302;51.446;-2.000;2023-09-30T00:22:25;22.20;;;8.48;;
55300;SDS011;58302;51.446;-2.000;2023-09-30T00:24:51;12.48;;;7.07;;
55300;SDS011;58302;51.446;-2.000;2023-09-30T00:27:17;14.57;;;6.95;;
55300;SDS011;58302;51.446;-2.000;2023-09-30T00:29:42;13.35;;;6.32;;
55300;SDS011;58302;51.446;-2.000;2023-09-30T00:32:08;12.75;;;6.00;;
55300;SDS011;58302;51.446;-2.000;2023-09-30T00:34:35;10.55;;;4.70;;
55300;SDS011;58302;51.446;-2.000;2023-09-30T00:37:01;11.38;;;4.78;;
55300;SDS011;58302;51.446;-2.000;2023-09-30T00:39:28;12.20;;;5.93;;
55300;SDS011;58302;51.446;-2.000;2023-09-30T00:41:57;11.52;;;5.60;;
55300;SDS011;58302;51.446;-2.000;2023-09-30T00:44:26;9.43;;;4.18;;
55300;SDS011;58302;51.446;-2.000;2023-09-30T00:46:52;11.63;;;5.13;;
55300;SDS011;58302;51.446;-2.000;2023-09-30T00:49:21;8.02;;;4.03;;
55300;SDS011;58302;51.446;-2.000;2023-09-30T00:51:49;8.85;;;4.63;;
55300;SDS011;58302;51.446;-2.000;2023-09-30T00:54:15;12.55;;;4.13;;
55300;SDS011;58302;51.446;-2.000;2023-09-30T00:56:45;9.48;;;5.15;;
55300;SDS011;58302;51.446;-2.000;2023-09-30T00:59:15;8.43;;;3.22;;
55300;SDS011;58302;51.446;-2.000;2023-09-30T01:01:42;7.68;;;3.22;;
55300;SDS011;58302;51.446;-2.000;2023-09-30T01:04:10;11.93;;;4.03;;
55300;SDS011;58302;51.446;-2.000;2023-09-30T01:06:37;11.32;;;4.65;;
55300;SDS011;58302;51.446;-2.000;2023-09-30T01:09:03;12.55;;;3.70;;
55300;SDS011;58302;51.446;-2.000;2023-09-30T01:11:29;9.68;;;4.55;;
55300;SDS011;58302;51.446;-2.000;2023-09-30T01:13:56;8.25;;;2.83;;
55300;SDS011;58302;51.446;-2.000;2023-09-30T01:16:22;10.88;;;3.47;;
55300;SDS011;58302;51.446;-2.000;2023-09-30T01:18:49;8.60;;;3.50;;
55300;SDS011;58302;51.446;-2.000;2023-09-30T01:21:16;8.68;;;2.95;;
55300;SDS011;58302;51.446;-2.000;2023-09-30T01:23:43;10.10;;;3.88;;
55300;SDS011;58302;51.446;-2.000;2023-09-30T01:26:12;14.05;;;3.40;;
55300;SDS011;58302;51.446;-2.000;2023-09-30T01:28:38;12.43;;;3.63;;
55300;SDS011;58302;51.446;-2.000;2023-09-30T01:31:07;10.13;;;4.22;;
55300;SDS011;58302;51.446;-2.000;2023-09-30T01:33:33;10.45;;;4.00;;
55300;SDS011;58302;51.446;-2.000;2023-09-30T01:36:02;8.05;;;3.22;;
55300;SDS011;58302;51.446;-2.000;2023-09-30T01:38:36;9.13;;;3.70;;
55300;SDS011;58302;51.446;-2.000;2023-09-30T01:41:02;8.57;;;4.03;;
55300;SDS011;58302;51.446;-2.000;2023-09-30T01:43:31;13.95;;;3.30;;
55300;SDS011;58302;51.446;-2.000;2023-09-30T01:45:58;10.80;;;3.55;;
55300;SDS011;58302;51.446;-2.000;2023-09-30T01:48:24;12.88;;;3.20;;
55300;SDS011;58302;51.446;-2.000;2023-09-30T01:50:50;9.98;;;3.67;;
55300;SDS011;58302;51.446;-2.000;2023-09-30T01:53:16;9.40;;;3.47;;
55300;SDS011;58302;51.446;-2.000;2023-09-30T01:55:42;8.95;;;3.05;;
55300;SDS011;58302;51.446;-2.000;2023-09-30T01:58:10;12.90;;;3.47;;
55300;SDS011;58302;51.446;-2.000;2023-09-30T02:00:36;10.50;;;3.65;;
55300;SDS011;58302;51.446;-2.000;2023-09-30T02:03:02;7.70;;;4.03;;
55300;SDS011;58302;51.446;-2.000;2023-09-30T02:05:29;7.85;;;3.45;;
55300;SDS011;58302;51.446;-2.000;2023-09-30T02:07:55;10.95;;;3.00;;
55300;SDS011;58302;51.446;-2.000;2023-09-30T02:10:21;10.85;;;3.00;;
55300;SDS011;58302;51.446;-2.000;2023-09-30T02:12:47;11.70;;;3.92;;
55300;SDS011;58302;51.446;-2.000;2023-09-30T02:15:14;7.80;;;3.22;;
55300;SDS011;58302;51.446;-2.000;2023-09-30T02:17:40;8.20;;;3.75;;
55300;SDS011;58302;51.446;-2.000;2023-09-30T02:20:11;12.82;;;3.65;;
55300;SDS011;58302;51.446;-2.000;2023-09-30T02:22:41;11.18;;;4.10;;
55300;SDS011;58302;51.446;-2.000;2023-09-30T02:25:09;7.60;;;2.95;;
55300;SDS011;58302;51.446;-2.000;2023-09-30T02:27:35;7.60;;;3.20;;
55300;SDS011;58302;51.446;-2.000;2023-09-30T02:30:01;9.05;;;3.05;;
55300;SDS011;58302;51.446;-2.000;2023-09-30T02:32:27;11.20;;;3.53;;
55300;SDS011;58302;51.446;-2.000;2023-09-30T02:34:54;12.57;;;3.70;;
55300;SDS011;58302;51.446;-2.000;2023-09-30T02:37:20;11.70;;;4.03;;
55300;SDS011;58302;51.446;-2.000;2023-09-30T02:39:46;10.85;;;3.33;;
55300;SDS011;58302;51.446;-2.000;2023-09-30T02:42:12;17.15;;;4.43;;
55300;SDS011;58302;51.446;-2.000;2023-09-30T02:44:38;10.63;;;3.80;;
55300;SDS011;58302;51.446;-2.000;2023-09-30T02:47:04;10.00;;;3.00;;
55300;SDS011;58302;51.446;-2.000;2023-09-30T02:49:32;21.02;;;4.10;;
55300;SDS011;58302;51.446;-2.000;2023-09-30T02:51:58;9.55;;;2.83;;
55300;SDS011;58302;51.446;-2.000;2023-09-30T02:54:24;9.95;;;3.13;;
55300;SDS011;58302;51.446;-2.000;2023-09-30T02:56:50;17.20;;;4.38;;
55300;SDS011;58302;51.446;-2.000;2023-09-30T02:59:17;14.27;;;3.88;;
55300;SDS011;58302;51.446;-2.000;2023-09-30T03:01:44;7.78;;;3.60;;
55300;SDS011;58302;51.446;-2.000;2023-09-30T03:04:10;7.97;;;3.60;;
55300;SDS011;58302;51.446;-2.000;2023-09-30T03:06:38;8.50;;;4.50;;
55300;SDS011;58302;51.446;-2.000;2023-09-30T03:09:05;12.02;;;4.68;;
55300;SDS011;58302;51.446;-2.000;2023-09-30T03:11:31;8.05;;;3.65;;
55300;SDS011;58302;51.446;-2.000;2023-09-30T03:13:57;10.00;;;3.42;;
55300;SDS011;58302;51.446;-2.000;2023-09-30T03:16:24;11.77;;;3.13;;
55300;SDS011;58302;51.446;-2.000;2023-09-30T03:18:50;6.82;;;2.88;;
55300;SDS011;58302;51.446;-2.000;2023-09-30T03:21:16;10.32;;;3.38;;
55300;SDS011;58302;51.446;-2.000;2023-09-30T03:23:43;9.57;;;3.33;;
55300;SDS011;58302;51.446;-2.000;2023-09-30T03:26:09;13.75;;;3.72;;
55300;SDS011;58302;51.446;-2.000;2023-09-30T03:28:36;7.85;;;4.03;;
55300;SDS011;58302;51.446;-2.000;2023-09-30T03:31:05;6.88;;;2.53;;
55300;SDS011;58302;51.446;-2.000;2023-09-30T03:33:32;9.98;;;3.53;;
55300;SDS011;58302;51.446;-2.000;2023-09-30T03:35:58;9.93;;;4.03;;
55300;SDS011;58302;51.446;-2.000;2023-09-30T03:38:25;16.70;;;4.35;;
55300;SDS011;58302;51.446;-2.000;2023-09-30T03:40:52;12.50;;;2.83;;
55300;SDS011;58302;51.446;-2.000;2023-09-30T03:43:20;11.75;;;3.97;;
55300;SDS011;58302;51.446;-2.000;2023-09-30T03:45:48;9.52;;;4.15;;
55300;SDS011;58302;51.446;-2.000;2023-09-30T03:48:15;11.88;;;3.92;;
55300;SDS011;58302;51.446;-2.000;2023-09-30T03:50:44;12.23;;;4.15;;
55300;SDS011;58302;51.446;-2.000;2023-09-30T03:53:11;10.45;;;3.38;;
55300;SDS011;58302;51.446;-2.000;2023-09-30T03:55:37;11.20;;;3.95;;
55300;SDS011;58302;51.446;-2.000;2023-09-30T03:58:03;8.00;;;3.25;;
55300;SDS011;58302;51.446;-2.000;2023-09-30T04:00:30;10.18;;;3.25;;
55300;SDS011;58302;51.446;-2.000;2023-09-30T04:02:57;11.73;;;3.72;;
55300;SDS011;58302;51.446;-2.000;2023-09-30T04:05:24;10.57;;;2.70;;
55300;SDS011;58302;51.446;-2.000;2023-09-30T04:07:57;15.50;;;3.60;;
55300;SDS011;58302;51.446;-2.000;2023-09-30T04:10:24;12.07;;;3.75;;
55300;SDS011;58302;51.446;-2.000;2023-09-30T04:12:51;8.82;;;3.03;;
55300;SDS011;58302;51.446;-2.000;2023-09-30T04:15:18;11.82;;;3.55;;
55300;SDS011;58302;51.446;-2.000;2023-09-30T04:17:45;11.85;;;3.08;;
55300;SDS011;58302;51.446;-2.000;2023-09-30T04:20:11;9.43;;;3.85;;
55300;SDS011;58302;51.446;-2.000;2023-09-30T04:22:41;12.85;;;3.03;;
55300;SDS011;58302;51.446;-2.000;2023-09-30T04:25:12;9.43;;;3.47;;
55300;SDS011;58302;51.446;-2.000;2023-09-30T04:27:38;7.38;;;2.40;;
55300;SDS011;58302;51.446;-2.000;2023-09-30T04:30:04;12.73;;;3.88;;
55300;SDS011;58302;51.446;-2.000;2023-09-30T04:32:37;7.57;;;2.63;;
55300;SDS011;58302;51.446;-2.000;2023-09-30T04:35:06;13.02;;;3.00;;
55300;SDS011;58302;51.446;-2.000;2023-09-30T04:40:13;6.57;;;3.05;;
55300;SDS011;58302;51.446;-2.000;2023-09-30T04:42:48;8.15;;;2.95;;
55300;SDS011;58302;51.446;-2.000;2023-09-30T04:45:15;15.15;;;3.95;;
55300;SDS011;58302;51.446;-2.000;2023-09-30T04:47:45;10.90;;;2.95;;
55300;SDS011;58302;51.446;-2.000;2023-09-30T04:50:11;12.80;;;3.25;;
55300;SDS011;58302;51.446;-2.000;2023-09-30T04:52:42;9.05;;;3.55;;
55300;SDS011;58302;51.446;-2.000;2023-09-30T04:55:10;5.55;;;2.78;;
55300;SDS011;58302;51.446;-2.000;2023-09-30T04:57:42;8.95;;;2.45;;
55300;SDS011;58302;51.446;-2.000;2023-09-30T05:00:12;13.32;;;3.42;;
55300;SDS011;58302;51.446;-2.000;2023-09-30T05:02:45;8.95;;;2.88;;
55300;SDS011;58302;51.446;-2.000;2023-09-30T05:05:11;9.18;;;3.10;;
55300;SDS011;58302;51.446;-2.000;2023-09-30T05:07:38;8.30;;;4.00;;
55300;SDS011;58302;51.446;-2.000;2023-09-30T05:10:06;9.48;;;2.90;;
55300;SDS011;58302;51.446;-2.000;2023-09-30T05:12:36;11.85;;;4.50;;
55300;SDS011;58302;51.446;-2.000;2023-09-30T05:15:08;10.40;;;3.20;;
55300;SDS011;58302;51.446;-2.000;2023-09-30T05:17:43;4.68;;;2.70;;
55300;SDS011;58302;51.446;-2.000;2023-09-30T05:20:10;10.02;;;2.75;;
55300;SDS011;58302;51.446;-2.000;2023-09-30T05:22:40;9.13;;;3.88;;
55300;SDS011;58302;51.446;-2.000;2023-09-30T05:25:09;7.93;;;3.20;;
55300;SDS011;58302;51.446;-2.000;2023-09-30T05:27:35;8.75;;;2.92;;
55300;SDS011;58302;51.446;-2.000;2023-09-30T05:30:01;7.32;;;3.03;;
55300;SDS011;58302;51.446;-2.000;2023-09-30T05:32:28;8.80;;;3.95;;
55300;SDS011;58302;51.446;-2.000;2023-09-30T05:34:54;15.02;;;3.60;;
55300;SDS011;58302;51.446;-2.000;2023-09-30T05:37:21;14.88;;;3.63;;
55300;SDS011;58302;51.446;-2.000;2023-09-30T05:39:48;7.35;;;3.95;;
55300;SDS011;58302;51.446;-2.000;2023-09-30T05:42:17;9.10;;;3.35;;
55300;SDS011;58302;51.446;-2.000;2023-09-30T05:44:44;10.70;;;3.83;;
55300;SDS011;58302;51.446;-2.000;2023-09-30T05:47:11;8.70;;;3.08;;
55300;SDS011;58302;51.446;-2.000;2023-09-30T05:49:45;7.65;;;3.50;;
55300;SDS011;58302;51.446;-2.000;2023-09-30T05:52:19;11.52;;;3.45;;
55300;SDS011;58302;51.446;-2.000;2023-09-30T05:54:58;11.98;;;3.65;;
55300;SDS011;58302;51.446;-2.000;2023-09-30T05:57:27;15.13;;;2.78;;
55300;SDS011;58302;51.446;-2.000;2023-09-30T06:03:06;7.03;;;3.60;;
55300;SDS011;58302;51.446;-2.000;2023-09-30T06:05:38;16.55;;;3.83;;
55300;SDS011;58302;51.446;-2.000;2023-09-30T06:08:07;12.68;;;4.20;;
55300;SDS011;58302;51.446;-2.000;2023-09-30T06:10:48;11.43;;;3.63;;
55300;SDS011;58302;51.446;-2.000;2023-09-30T06:16:02;6.72;;;2.70;;
55300;SDS011;58302;51.446;-2.000;2023-09-30T06:20:56;7.68;;;3.10;;
55300;SDS011;58302;51.446;-2.000;2023-09-30T06:23:23;8.32;;;2.90;;
55300;SDS011;58302;51.446;-2.000;2023-09-30T06:25:50;9.80;;;2.88;;
55300;SDS011;58302;51.446;-2.000;2023-09-30T06:28:17;11.25;;;3.08;;
55300;SDS011;58302;51.446;-2.000;2023-09-30T06:30:43;7.30;;;3.25;;
55300;SDS011;58302;51.446;-2.000;2023-09-30T06:33:11;10.43;;;3.28;;
55300;SDS011;58302;51.446;-2.000;2023-09-30T06:35:40;13.40;;;3.75;;
55300;SDS011;58302;51.446;-2.000;2023-09-30T06:38:18;11.95;;;3.50;;
55300;SDS011;58302;51.446;-2.000;2023-09-30T06:40:45;7.78;;;4.43;;
55300;SDS011;58302;51.446;-2.000;2023-09-30T06:43:15;11.77;;;3.78;;
55300;SDS011;58302;51.446;-2.000;2023-09-30T06:45:43;11.80;;;4.25;;
55300;SDS011;58302;51.446;-2.000;2023-09-30T06:48:10;7.78;;;3.75;;
55300;SDS011;58302;51.446;-2.000;2023-09-30T06:50:47;11.02;;;3.35;;
55300;SDS011;58302;51.446;-2.000;2023-09-30T06:53:16;8.43;;;2.70;;
55300;SDS011;58302;51.446;-2.000;2023-09-30T06:55:43;7.35;;;2.58;;
55300;SDS011;58302;51.446;-2.000;2023-09-30T06:58:09;10.13;;;3.42;;
55300;SDS011;58302;51.446;-2.000;2023-09-30T07:00:42;14.40;;;4.25;;
55300;SDS011;58302;51.446;-2.000;2023-09-30T07:03:09;7.90;;;2.95;;
55300;SDS011;58302;51.446;-2.000;2023-09-30T07:05:35;6.60;;;2.88;;
55300;SDS011;58302;51.446;-2.000;2023-09-30T07:08:02;8.50;;;2.95;;
55300;SDS011;58302;51.446;-2.000;2023-09-30T07:10:28;8.48;;;2.45;;
55300;SDS011;58302;51.446;-2.000;2023-09-30T07:12:55;4.05;;;2.10;;
55300;SDS011;58302;51.446;-2.000;2023-09-30T07:15:21;5.65;;;2.42;;
55300;SDS011;58302;51.446;-2.000;2023-09-30T07:17:47;6.55;;;2.35;;
55300;SDS011;58302;51.446;-2.000;2023-09-30T07:20:14;4.18;;;1.90;;
55300;SDS011;58302;51.446;-2.000;2023-09-30T07:22:41;21.67;;;2.60;;
55300;SDS011;58302;51.446;-2.000;2023-09-30T07:25:07;5.80;;;2.13;;
55300;SDS011;58302;51.446;-2.000;2023-09-30T07:27:34;8.90;;;1.88;;
55300;SDS011;58302;51.446;-2.000;2023-09-30T07:30:01;5.07;;;1.85;;
55300;SDS011;58302;51.446;-2.000;2023-09-30T07:32:28;5.00;;;2.08;;
55300;SDS011;58302;51.446;-2.000;2023-09-30T07:34:57;6.38;;;2.05;;
55300;SDS011;58302;51.446;-2.000;2023-09-30T07:37:23;6.55;;;1.83;;
55300;SDS011;58302;51.446;-2.000;2023-09-30T07:39:49;2.80;;;1.40;;
55300;SDS011;58302;51.446;-2.000;2023-09-30T07:42:15;7.55;;;1.92;;
55300;SDS011;58302;51.446;-2.000;2023-09-30T07:44:42;3.17;;;1.88;;
55300;SDS011;58302;51.446;-2.000;2023-09-30T07:47:08;4.47;;;1.63;;
55300;SDS011;58302;51.446;-2.000;2023-09-30T07:49:35;4.85;;;2.33;;
55300;SDS011;58302;51.446;-2.000;2023-09-30T07:52:01;3.42;;;1.80;;
55300;SDS011;58302;51.446;-2.000;2023-09-30T07:54:27;4.72;;;2.33;;
55300;SDS011;58302;51.446;-2.000;2023-09-30T07:56:54;4.90;;;1.63;;
55300;SDS011;58302;51.446;-2.000;2023-09-30T07:59:20;6.80;;;2.10;;
55300;SDS011;58302;51.446;-2.000;2023-09-30T08:01:47;4.32;;;1.95;;
55300;SDS011;58302;51.446;-2.000;2023-09-30T08:04:13;5.63;;;2.28;;
55300;SDS011;58302;51.446;-2.000;2023-09-30T08:06:39;4.53;;;1.50;;
55300;SDS011;58302;51.446;-2.000;2023-09-30T08:09:06;6.38;;;2.85;;
55300;SDS011;58302;51.446;-2.000;2023-09-30T08:11:37;4.50;;;1.98;;
55300;SDS011;58302;51.446;-2.000;2023-09-30T08:14:03;6.85;;;1.77;;
55300;SDS011;58302;51.446;-2.000;2023-09-30T08:16:35;5.10;;;1.65;;
55300;SDS011;58302;51.446;-2.000;2023-09-30T08:19:02;5.93;;;1.98;;
55300;SDS011;58302;51.446;-2.000;2023-09-30T08:21:29;5.38;;;3.30;;
55300;SDS011;58302;51.446;-2.000;2023-09-30T08:23:58;10.40;;;3.50;;
55300;SDS011;58302;51.446;-2.000;2023-09-30T08:26:24;6.40;;;1.92;;
55300;SDS011;58302;51.446;-2.000;2023-09-30T08:28:51;4.15;;;1.83;;
55300;SDS011;58302;51.446;-2.000;2023-09-30T08:31:17;7.63;;;1.60;;
55300;SDS011;58302;51.446;-2.000;2023-09-30T08:33:43;4.93;;;1.58;;
55300;SDS011;58302;51.446;-2.000;2023-09-30T08:36:11;5.30;;;2.67;;
55300;SDS011;58302;51.446;-2.000;2023-09-30T08:38:40;4.65;;;1.73;;
55300;SDS011;58302;51.446;-2.000;2023-09-30T08:41:07;4.78;;;1.77;;
55300;SDS011;58302;51.446;-2.000;2023-09-30T08:43:37;5.25;;;1.50;;
55300;SDS011;58302;51.446;-2.000;2023-09-30T08:46:04;5.63;;;2.35;;
55300;SDS011;58302;51.446;-2.000;2023-09-30T08:48:32;7.28;;;2.13;;
55300;SDS011;58302;51.446;-2.000;2023-09-30T08:50:59;5.40;;;1.73;;
55300;SDS011;58302;51.446;-2.000;2023-09-30T08:53:26;5.05;;;1.90;;
55300;SDS011;58302;51.446;-2.000;2023-09-30T08:55:54;6.13;;;2.85;;
55300;SDS011;58302;51.446;-2.000;2023-09-30T08:58:23;7.22;;;2.78;;
55300;SDS011;58302;51.446;-2.000;2023-09-30T09:00:51;7.13;;;1.95;;
55300;SDS011;58302;51.446;-2.000;2023-09-30T09:03:20;11.23;;;3.08;;
55300;SDS011;58302;51.446;-2.000;2023-09-30T09:05:53;3.72;;;1.55;;
55300;SDS011;58302;51.446;-2.000;2023-09-30T09:08:22;5.63;;;2.05;;
55300;SDS011;58302;51.446;-2.000;2023-09-30T09:10:55;2.47;;;1.40;;
55300;SDS011;58302;51.446;-2.000;2023-09-30T09:13:22;4.75;;;1.70;;
55300;SDS011;58302;51.446;-2.000;2023-09-30T09:15:50;6.95;;;2.50;;
55300;SDS011;58302;51.446;-2.000;2023-09-30T09:18:34;5.63;;;2.45;;
55300;SDS011;58302;51.446;-2.000;2023-09-30T09:21:10;7.40;;;2.58;;
55300;SDS011;58302;51.446;-2.000;2023-09-30T09:23:41;5.07;;;2.10;;
55300;SDS011;58302;51.446;-2.000;2023-09-30T09:26:09;5.95;;;1.92;;
55300;SDS011;58302;51.446;-2.000;2023-09-30T09:28:37;9.05;;;3.15;;
55300;SDS011;58302;51.446;-2.000;2023-09-30T09:34:15;5.70;;;1.40;;
55300;SDS011;58302;51.446;-2.000;2023-09-30T09:36:42;3.95;;;1.80;;
55300;SDS011;58302;51.446;-2.000;2023-09-30T09:39:09;6.88;;;2.13;;
55300;SDS011;58302;51.446;-2.000;2023-09-30T09:42:00;3.08;;;1.33;;
55300;SDS011;58302;51.446;-2.000;2023-09-30T09:44:27;6.72;;;1.77;;
55300;SDS011;58302;51.446;-2.000;2023-09-30T09:46:53;6.50;;;2.00;;
55300;SDS011;58302;51.446;-2.000;2023-09-30T09:49:20;6.10;;;1.60;;
55300;SDS011;58302;51.446;-2.000;2023-09-30T09:51:47;3.83;;;1.80;;
55300;SDS011;58302;51.446;-2.000;2023-09-30T09:54:15;10.77;;;2.33;;
55300;SDS011;58302;51.446;-2.000;2023-09-30T09:56:43;6.22;;;1.63;;
55300;SDS011;58302;51.446;-2.000;2023-09-30T09:59:11;4.63;;;1.65;;
55300;SDS011;58302;51.446;-2.000;2023-09-30T10:01:39;4.20;;;1.80;;
55300;SDS011;58302;51.446;-2.000;2023-09-30T10:04:06;2.85;;;1.45;;
55300;SDS011;58302;51.446;-2.000;2023-09-30T10:06:33;4.97;;;1.85;;
55300;SDS011;58302;51.446;-2.000;2023-09-30T10:09:09;5.10;;;1.40;;
55300;SDS011;58302;51.446;-2.000;2023-09-30T10:11:39;6.22;;;1.60;;
55300;SDS011;58302;51.446;-2.000;2023-09-30T10:14:06;4.75;;;1.55;;
55300;SDS011;58302;51.446;-2.000;2023-09-30T10:19:07;4.22;;;1.45;;
55300;SDS011;58302;51.446;-2.000;2023-09-30T10:21:34;9.43;;;1.90;;
55300;SDS011;58302;51.446;-2.000;2023-09-30T10:29:48;7.30;;;2.08;;
55300;SDS011;58302;51.446;-2.000;2023-09-30T10:32:23;9.05;;;2.00;;
55300;SDS011;58302;51.446;-2.000;2023-09-30T10:40:53;7.50;;;1.63;;
55300;SDS011;58302;51.446;-2.000;2023-09-30T10:43:29;6.07;;;1.90;;
55300;SDS011;58302;51.446;-2.000;2023-09-30T10:45:59;6.18;;;2.17;;
55300;SDS011;58302;51.446;-2.000;2023-09-30T10:50:53;4.53;;;2.10;;
55300;SDS011;58302;51.446;-2.000;2023-09-30T10:53:24;6.25;;;2.25;;
55300;SDS011;58302;51.446;-2.000;2023-09-30T10:55:59;6.38;;;2.33;;
55300;SDS011;58302;51.446;-2.000;2023-09-30T10:58:41;6.15;;;1.85;;
55300;SDS011;58302;51.446;-2.000;2023-09-30T11:01:21;8.05;;;2.65;;
55300;SDS011;58302;51.446;-2.000;2023-09-30T11:03:48;4.15;;;1.52;;
55300;SDS011;58302;51.446;-2.000;2023-09-30T11:06:20;6.35;;;2.22;;
55300;SDS011;58302;51.446;-2.000;2023-09-30T11:08:50;3.20;;;1.73;;
55300;SDS011;58302;51.446;-2.000;2023-09-30T11:11:18;10.85;;;2.60;;
55300;SDS011;58302;51.446;-2.000;2023-09-30T11:13:44;3.95;;;1.67;;
55300;SDS011;58302;51.446;-2.000;2023-09-30T11:16:11;7.25;;;2.50;;
55300;SDS011;58302;51.446;-2.000;2023-09-30T11:18:37;4.35;;;1.63;;
55300;SDS011;58302;51.446;-2.000;2023-09-30T11:21:04;4.10;;;1.52;;
55300;SDS011;58302;51.446;-2.000;2023-09-30T11:23:31;8.27;;;2.33;;
55300;SDS011;58302;51.446;-2.000;2023-09-30T11:25:58;3.88;;;1.88;;
55300;SDS011;58302;51.446;-2.000;2023-09-30T11:28:25;4.40;;;1.92;;
55300;SDS011;58302;51.446;-2.000;2023-09-30T11:31:01;7.50;;;2.33;;
55300;SDS011;58302;51.446;-2.000;2023-09-30T11:33:28;10.05;;;3.47;;
55300;SDS011;58302;51.446;-2.000;2023-09-30T11:36:01;4.50;;;1.70;;
55300;SDS011;58302;51.446;-2.000;2023-09-30T11:38:34;4.70;;;1.63;;
55300;SDS011;58302;51.446;-2.000;2023-09-30T11:41:04;3.88;;;1.70;;
55300;SDS011;58302;51.446;-2.000;2023-09-30T11:43:32;5.82;;;1.92;;
55300;SDS011;58302;51.446;-2.000;2023-09-30T11:48:35;4.30;;;1.75;;
55300;SDS011;58302;51.446;-2.000;2023-09-30T11:51:02;5.00;;;1.83;;
55300;SDS011;58302;51.446;-2.000;2023-09-30T11:53:29;6.40;;;2.42;;
55300;SDS011;58302;51.446;-2.000;2023-09-30T11:55:57;6.28;;;2.10;;
55300;SDS011;58302;51.446;-2.000;2023-09-30T11:58:27;6.28;;;1.60;;
55300;SDS011;58302;51.446;-2.000;2023-09-30T12:00:55;4.30;;;2.42;;
55300;SDS011;58302;51.446;-2.000;2023-09-30T12:03:23;9.68;;;2.50;;
55300;SDS011;58302;51.446;-2.000;2023-09-30T12:05:49;5.65;;;2.10;;
55300;SDS011;58302;51.446;-2.000;2023-09-30T12:08:16;5.38;;;2.05;;
55300;SDS011;58302;51.446;-2.000;2023-09-30T12:10:43;3.33;;;1.50;;
55300;SDS011;58302;51.446;-2.000;2023-09-30T12:13:09;7.78;;;1.65;;
55300;SDS011;58302;51.446;-2.000;2023-09-30T12:15:37;6.07;;;2.03;;
55300;SDS011;58302;51.446;-2.000;2023-09-30T12:18:03;5.53;;;2.08;;
55300;SDS011;58302;51.446;-2.000;2023-09-30T12:20:30;5.10;;;1.88;;
55300;SDS011;58302;51.446;-2.000;2023-09-30T12:22:56;6.53;;;1.80;;
55300;SDS011;58302;51.446;-2.000;2023-09-30T12:25:22;7.65;;;1.90;;
55300;SDS011;58302;51.446;-2.000;2023-09-30T12:27:50;2.65;;;1.75;;
55300;SDS011;58302;51.446;-2.000;2023-09-30T12:30:16;5.93;;;1.63;;
55300;SDS011;58302;51.446;-2.000;2023-09-30T12:32:45;5.47;;;1.70;;
55300;SDS011;58302;51.446;-2.000;2023-09-30T12:35:11;7.55;;;1.85;;
55300;SDS011;58302;51.446;-2.000;2023-09-30T12:37:38;2.45;;;1.23;;
55300;SDS011;58302;51.446;-2.000;2023-09-30T12:40:05;6.00;;;1.90;;
55300;SDS011;58302;51.446;-2.000;2023-09-30T12:42:37;4.57;;;1.92;;
55300;SDS011;58302;51.446;-2.000;2023-09-30T12:45:03;7.00;;;1.48;;
55300;SDS011;58302;51.446;-2.000;2023-09-30T12:47:31;3.55;;;1.77;;
55300;SDS011;58302;51.446;-2.000;2023-09-30T12:49:57;3.83;;;1.60;;
55300;SDS011;58302;51.446;-2.000;2023-09-30T12:52:23;6.30;;;2.38;;
55300;SDS011;58302;51.446;-2.000;2023-09-30T12:54:50;4.43;;;2.17;;
55300;SDS011;58302;51.446;-2.000;2023-09-30T12:57:16;8.10;;;1.77;;
55300;SDS011;58302;51.446;-2.000;2023-09-30T12:59:43;6.00;;;1.73;;
55300;SDS011;58302;51.446;-2.000;2023-09-30T13:02:12;5.78;;;2.25;;
55300;SDS011;58302;51.446;-2.000;2023-09-30T13:04:38;3.45;;;1.42;;
55300;SDS011;58302;51.446;-2.000;2023-09-30T13:07:09;3.22;;;1.30;;
55300;SDS011;58302;51.446;-2.000;2023-09-30T13:09:38;4.13;;;1.80;;
55300;SDS011;58302;51.446;-2.000;2023-09-30T13:12:05;1.95;;;1.35;;
55300;SDS011;58302;51.446;-2.000;2023-09-30T13:14:31;5.95;;;1.35;;
55300;SDS011;58302;51.446;-2.000;2023-09-30T13:16:58;3.67;;;1.40;;
55300;SDS011;58302;51.446;-2.000;2023-09-30T13:19:24;2.58;;;1.15;;
55300;SDS011;58302;51.446;-2.000;2023-09-30T13:21:50;3.72;;;1.90;;
55300;SDS011;58302;51.446;-2.000;2023-09-30T13:24:18;2.05;;;1.40;;
55300;SDS011;58302;51.446;-2.000;2023-09-30T13:26:45;8.30;;;2.03;;
55300;SDS011;58302;51.446;-2.000;2023-09-30T13:29:12;5.65;;;1.40;;
55300;SDS011;58302;51.446;-2.000;2023-09-30T13:31:39;3.67;;;1.30;;
55300;SDS011;58302;51.446;-2.000;2023-09-30T13:34:05;8.75;;;1.70;;
55300;SDS011;58302;51.446;-2.000;2023-09-30T13:36:32;6.65;;;2.10;;
55300;SDS011;58302;51.446;-2.000;2023-09-30T13:38:58;5.40;;;1.92;;
55300;SDS011;58302;51.446;-2.000;2023-09-30T13:41:24;4.35;;;1.45;;
55300;SDS011;58302;51.446;-2.000;2023-09-30T13:43:50;6.57;;;1.48;;
55300;SDS011;58302;51.446;-2.000;2023-09-30T13:46:16;5.22;;;1.52;;
55300;SDS011;58302;51.446;-2.000;2023-09-30T13:48:44;6.95;;;2.50;;
55300;SDS011;58302;51.446;-2.000;2023-09-30T13:51:10;3.65;;;1.65;;
55300;SDS011;58302;51.446;-2.000;2023-09-30T13:53:37;5.75;;;1.65;;
55300;SDS011;58302;51.446;-2.000;2023-09-30T13:56:03;4.15;;;1.50;;
55300;SDS011;58302;51.446;-2.000;2023-09-30T13:58:30;10.20;;;2.03;;
55300;SDS011;58302;51.446;-2.000;2023-09-30T14:00:56;4.07;;;1.80;;
55300;SDS011;58302;51.446;-2.000;2023-09-30T14:03:23;6.20;;;2.38;;
55300;SDS011;58302;51.446;-2.000;2023-09-30T14:05:50;5.90;;;1.80;;
55300;SDS011;58302;51.446;-2.000;2023-09-30T14:08:16;3.55;;;1.60;;
55300;SDS011;58302;51.446;-2.000;2023-09-30T14:11:00;4.90;;;1.73;;
55300;SDS011;58302;51.446;-2.000;2023-09-30T14:13:27;7.10;;;1.85;;
55300;SDS011;58302;51.446;-2.000;2023-09-30T14:15:55;5.63;;;2.17;;
55300;SDS011;58302;51.446;-2.000;2023-09-30T14:18:28;3.40;;;1.67;;
55300;SDS011;58302;51.446;-2.000;2023-09-30T14:23:40;3.92;;;1.77;;
55300;SDS011;58302;51.446;-2.000;2023-09-30T14:26:06;3.80;;;1.65;;
55300;SDS011;58302;51.446;-2.000;2023-09-30T14:28:36;5.13;;;2.70;;
55300;SDS011;58302;51.446;-2.000;2023-09-30T14:31:03;9.50;;;2.60;;
55300;SDS011;58302;51.446;-2.000;2023-09-30T14:33:30;6.13;;;2.63;;
55300;SDS011;58302;51.446;-2.000;2023-09-30T14:35:56;2.20;;;1.75;;
55300;SDS011;58302;51.446;-2.000;2023-09-30T14:38:23;7.10;;;2.38;;
55300;SDS011;58302;51.446;-2.000;2023-09-30T14:40:49;8.50;;;2.00;;
55300;SDS011;58302;51.446;-2.000;2023-09-30T14:43:15;4.57;;;2.10;;
55300;SDS011;58302;51.446;-2.000;2023-09-30T14:45:41;6.47;;;1.95;;
55300;SDS011;58302;51.446;-2.000;2023-09-30T14:48:09;6.40;;;2.70;;
55300;SDS011;58302;51.446;-2.000;2023-09-30T14:50:36;8.43;;;3.10;;
55300;SDS011;58302;51.446;-2.000;2023-09-30T14:53:02;6.90;;;2.38;;
55300;SDS011;58302;51.446;-2.000;2023-09-30T14:55:31;7.65;;;2.63;;
55300;SDS011;58302;51.446;-2.000;2023-09-30T14:57:57;6.30;;;2.63;;
55300;SDS011;58302;51.446;-2.000;2023-09-30T15:00:23;7.78;;;3.13;;
55300;SDS011;58302;51.446;-2.000;2023-09-30T15:02:50;10.00;;;2.58;;
55300;SDS011;58302;51.446;-2.000;2023-09-30T15:05:16;3.55;;;2.03;;
55300;SDS011;58302;51.446;-2.000;2023-09-30T15:07:42;10.23;;;3.47;;
55300;SDS011;58302;51.446;-2.000;2023-09-30T15:10:09;10.27;;;3.15;;